createdAt,value
2018-04-26T00:02:03.424Z,10.20
2018-04-26T00:08:07.786Z,8.70
2018-04-26T00:14:12.128Z,9.33
2018-04-26T00:20:17.254Z,8.53
2018-04-26T00:26:21.636Z,9.00
2018-04-26T00:32:26.019Z,10.17
2018-04-26T00:38:30.475Z,10.37
2018-04-26T00:44:35.379Z,9.83
2018-04-26T00:50:40.157Z,9.50
2018-04-26T00:56:44.560Z,9.60
2018-04-26T01:02:49.173Z,10.87
2018-04-26T01:08:53.530Z,11.17
2018-04-26T01:14:58.011Z,11.73
2018-04-26T01:21:02.387Z,10.83
2018-04-26T01:27:06.882Z,11.37
2018-04-26T01:33:12.040Z,12.73
2018-04-26T01:39:16.411Z,11.60
2018-04-26T01:45:20.864Z,12.77
2018-04-26T01:51:25.316Z,11.90
2018-04-26T01:57:29.696Z,13.33
2018-04-26T02:03:34.301Z,13.50
2018-04-26T02:09:38.949Z,13.53
2018-04-26T02:15:44.115Z,13.10
2018-04-26T02:21:48.462Z,14.10
2018-04-26T02:27:52.833Z,13.50
2018-04-26T02:33:57.333Z,13.23
2018-04-26T02:40:02.651Z,13.33
2018-04-26T02:46:07.106Z,14.23
2018-04-26T02:52:11.489Z,13.80
2018-04-26T02:58:15.837Z,14.00
2018-04-26T03:04:20.229Z,13.17
2018-04-26T03:10:24.594Z,15.03
2018-04-26T03:16:28.971Z,13.13
2018-04-26T03:22:33.980Z,13.57
2018-04-26T03:28:38.479Z,13.47
2018-04-26T03:34:43.621Z,11.53
2018-04-26T03:40:47.971Z,11.53
2018-04-26T03:46:52.335Z,11.57
2018-04-26T03:52:56.715Z,11.37
2018-04-26T03:59:01.067Z,10.20
2018-04-26T04:05:23.236Z,9.80
2018-04-26T04:11:28.484Z,9.50
2018-04-26T04:17:32.866Z,9.20
2018-04-26T04:23:38.040Z,9.53
2018-04-26T04:29:42.398Z,8.60
2018-04-26T04:35:47.547Z,8.50
2018-04-26T04:41:51.904Z,6.10
2018-04-26T04:47:56.254Z,6.47
2018-04-26T04:54:00.626Z,6.23
2018-04-26T05:00:05.100Z,5.97
2018-04-26T05:06:10.319Z,6.43
2018-04-26T05:12:14.659Z,5.93
2018-04-26T05:18:19.783Z,7.97
2018-04-26T05:24:24.149Z,8.03
2018-04-26T05:30:28.488Z,5.47
2018-04-26T05:36:33.021Z,5.03
2018-04-26T05:42:37.480Z,5.23
2018-04-26T05:48:41.841Z,7.30
2018-04-26T05:54:47.174Z,5.70
2018-04-26T06:00:51.554Z,6.17
2018-04-26T06:06:55.972Z,6.40
2018-04-26T06:13:01.152Z,6.90
2018-04-26T06:19:06.403Z,5.10
2018-04-26T06:25:10.911Z,5.17
2018-04-26T06:31:15.167Z,5.40
2018-04-26T06:37:19.502Z,4.40
2018-04-26T06:43:24.636Z,4.83
2018-04-26T06:49:29.002Z,5.53
2018-04-26T06:55:33.673Z,5.93
2018-04-26T07:01:38.079Z,5.50
2018-04-26T07:07:42.543Z,5.40
2018-04-26T07:13:46.892Z,5.23
2018-04-26T07:19:51.270Z,6.37
2018-04-26T07:25:55.620Z,5.70
2018-04-26T07:32:00.741Z,7.17
2018-04-26T07:38:05.927Z,7.10
2018-04-26T07:44:11.478Z,5.40
2018-04-26T07:50:15.886Z,2.33
2018-04-26T07:56:21.016Z,2.97
2018-04-26T08:02:25.978Z,3.63
2018-04-26T08:08:30.332Z,3.93
2018-04-26T08:14:35.750Z,4.20
2018-04-26T08:20:40.109Z,2.53
2018-04-26T08:26:45.264Z,3.40
2018-04-26T08:32:49.633Z,2.57
2018-04-26T08:38:54.004Z,2.60
2018-04-26T08:44:58.369Z,2.60
2018-04-26T08:51:02.758Z,3.20
2018-04-26T08:57:07.127Z,3.70
2018-04-26T09:03:11.519Z,4.87
2018-04-26T09:09:15.870Z,3.90
2018-04-26T09:15:20.233Z,4.60
2018-04-26T09:21:24.705Z,4.10
2018-04-26T09:27:29.088Z,4.17
2018-04-26T09:33:33.869Z,2.57
2018-04-26T09:39:38.349Z,2.97
2018-04-26T09:45:42.756Z,3.60
2018-04-26T09:51:47.113Z,3.50
2018-04-26T09:57:51.504Z,3.77
2018-04-26T10:03:55.893Z,3.30
2018-04-26T10:10:00.280Z,2.53
2018-04-26T10:16:04.906Z,2.73
2018-04-26T10:22:09.438Z,2.53
2018-04-26T10:28:13.820Z,3.07
2018-04-26T10:34:18.186Z,2.70
2018-04-26T10:40:22.589Z,2.50
2018-04-26T10:46:26.976Z,3.40
2018-04-26T10:52:31.355Z,4.10
2018-04-26T10:58:35.773Z,3.87
2018-04-26T11:04:40.152Z,5.40
2018-04-26T11:10:44.545Z,5.47
2018-04-26T11:16:49.688Z,3.20
2018-04-26T11:22:54.081Z,3.57
2018-04-26T11:28:59.263Z,2.37
2018-04-26T11:35:04.479Z,2.37
2018-04-26T11:41:08.848Z,3.53
2018-04-26T11:47:13.204Z,2.30
2018-04-26T11:53:17.574Z,2.30
2018-04-26T11:59:21.961Z,2.63
2018-04-26T12:05:26.340Z,2.80
2018-04-26T12:11:30.753Z,3.03
2018-04-26T12:17:35.920Z,2.90
2018-04-26T12:23:40.347Z,3.70
2018-04-26T12:29:44.830Z,2.70
2018-04-26T12:35:49.230Z,2.00
2018-04-26T12:41:53.871Z,3.40
2018-04-26T12:47:58.230Z,5.00
2018-04-26T12:54:03.561Z,3.57
2018-04-26T13:00:07.933Z,9.20
2018-04-26T13:06:12.405Z,4.70
2018-04-26T13:12:16.805Z,5.43
2018-04-26T13:18:21.255Z,3.83
2018-04-26T13:24:25.605Z,3.83
2018-04-26T13:30:30.803Z,3.80
2018-04-26T13:36:36.088Z,4.27
2018-04-26T13:42:41.220Z,4.60
2018-04-26T13:48:45.595Z,3.60
2018-04-26T13:54:49.954Z,4.90
2018-04-26T14:00:54.364Z,4.87
2018-04-26T14:06:58.735Z,5.70
2018-04-26T14:13:03.850Z,4.70
2018-04-26T14:19:08.332Z,5.53
2018-04-26T14:25:12.742Z,5.47
2018-04-26T14:31:17.118Z,4.73
2018-04-26T14:37:22.297Z,6.37
2018-04-26T14:43:26.714Z,6.27
2018-04-26T14:49:31.189Z,5.70
2018-04-26T14:55:35.568Z,4.50
2018-04-26T15:01:40.014Z,5.10
2018-04-26T15:07:44.395Z,5.10
2018-04-26T15:13:48.786Z,6.30
2018-04-26T15:19:53.173Z,6.00
2018-04-26T15:25:57.582Z,7.10
2018-04-26T15:32:02.924Z,9.00
2018-04-26T15:38:07.364Z,5.70
2018-04-26T15:44:11.742Z,7.13
2018-04-26T15:57:24.147Z,5.23
2018-04-26T16:03:47.496Z,3.60
2018-04-26T16:10:11.529Z,3.87
2018-04-26T16:16:39.345Z,4.03
2018-04-26T16:30:02.458Z,5.10
2018-04-26T16:42:45.964Z,5.63
2018-04-26T16:48:51.859Z,5.77
2018-04-26T16:54:57.038Z,4.57
2018-04-26T17:01:02.250Z,5.27
2018-04-26T17:07:06.727Z,5.07
2018-04-26T17:13:11.875Z,5.20
2018-04-26T17:19:16.249Z,5.57
2018-04-26T17:25:20.608Z,3.73
2018-04-26T17:31:25.082Z,3.47
2018-04-26T17:37:29.448Z,2.70
2018-04-26T17:43:33.807Z,3.63
2018-04-26T17:49:38.948Z,2.73
2018-04-26T17:55:43.324Z,2.67
2018-04-26T18:01:47.705Z,2.63
2018-04-26T18:07:52.091Z,1.97
2018-04-26T18:13:56.453Z,2.00
2018-04-26T18:20:08.150Z,2.53
2018-04-26T18:26:05.232Z,2.13
2018-04-26T18:32:10.435Z,2.53
2018-04-26T18:38:15.660Z,2.70
2018-04-26T18:44:20.014Z,2.97
2018-04-26T18:50:25.172Z,2.53
2018-04-26T18:56:29.512Z,3.07
2018-04-26T19:02:34.158Z,3.83
2018-04-26T19:08:38.599Z,3.20
2018-04-26T19:14:43.026Z,3.53
2018-04-26T19:20:47.458Z,3.10
2018-04-26T19:26:51.867Z,3.30
2018-04-26T19:32:57.039Z,3.77
2018-04-26T19:39:02.153Z,3.40
2018-04-26T19:45:07.294Z,3.03
2018-04-26T19:51:11.735Z,3.70
2018-04-26T19:57:16.091Z,4.10
2018-04-26T20:03:21.231Z,3.70
2018-04-26T20:09:25.756Z,3.60
2018-04-26T20:15:30.905Z,3.57
2018-04-26T20:21:35.590Z,4.57
2018-04-26T20:27:40.005Z,3.93
2018-04-26T20:33:45.222Z,4.10
2018-04-26T20:39:49.595Z,5.17
2018-04-26T20:45:53.980Z,4.47
2018-04-26T20:51:58.392Z,5.07
2018-04-26T20:58:02.855Z,4.70
2018-04-26T21:04:07.443Z,4.70
2018-04-26T21:10:11.890Z,5.00
2018-04-26T21:16:16.308Z,4.50
2018-04-26T21:22:20.654Z,4.77
2018-04-26T21:28:25.017Z,8.93
2018-04-26T21:34:29.415Z,9.43
2018-04-26T21:40:34.235Z,8.93
2018-04-26T21:46:39.406Z,6.50
2018-04-26T21:52:49.205Z,5.67
2018-04-26T21:58:58.960Z,6.80
2018-04-26T22:05:08.912Z,5.93
2018-04-26T22:11:13.295Z,6.77
2018-04-26T22:17:17.640Z,5.93
2018-04-26T22:23:21.997Z,5.37
2018-04-26T22:29:26.388Z,5.50
2018-04-26T22:35:30.769Z,6.23
2018-04-26T22:41:35.342Z,5.33
2018-04-26T22:47:39.689Z,5.97
2018-04-26T22:53:44.035Z,5.83
2018-04-26T22:59:48.419Z,5.80
2018-04-26T23:05:52.788Z,5.53
2018-04-26T23:11:57.159Z,5.60
2018-04-26T23:18:01.625Z,5.13
2018-04-26T23:24:06.346Z,4.30
2018-04-26T23:30:10.727Z,5.20
2018-04-26T23:36:15.106Z,5.87
2018-04-26T23:42:19.490Z,4.60
2018-04-26T23:48:23.962Z,4.90
2018-04-26T23:54:28.313Z,5.60
